sensor_id;sensor_type;location;lat;lon;timestamp;P1;durP1;ratioP1;P2;durP2;ratioP2
25207;SDS011;13153;52.316;21.166;2023-07-13T00:01:52;12.18;;;9.63;;
25207;SDS011;13153;52.316;21.166;2023-07-13T00:04:20;14.88;;;9.30;;
25207;SDS011;13153;52.316;21.166;2023-07-13T00:06:50;12.35;;;9.50;;
25207;SDS011;13153;52.316;21.166;2023-07-13T00:09:17;11.95;;;9.45;;
25207;SDS011;13153;52.316;21.166;2023-07-13T00:11:44;13.25;;;9.98;;
25207;SDS011;13153;52.316;21.166;2023-07-13T00:14:13;12.30;;;9.18;;
25207;SDS011;13153;52.316;21.166;2023-07-13T00:16:40;12.13;;;8.93;;
25207;SDS011;13153;52.316;21.166;2023-07-13T00:19:08;11.32;;;9.13;;
25207;SDS011;13153;52.316;21.166;2023-07-13T00:21:37;13.00;;;9.25;;
25207;SDS011;13153;52.316;21.166;2023-07-13T00:24:04;13.63;;;9.50;;
25207;SDS011;13153;52.316;21.166;2023-07-13T00:26:32;12.73;;;9.20;;
25207;SDS011;13153;52.316;21.166;2023-07-13T00:28:59;13.50;;;9.75;;
25207;SDS011;13153;52.316;21.166;2023-07-13T00:31:25;13.90;;;9.38;;
25207;SDS011;13153;52.316;21.166;2023-07-13T00:33:51;10.95;;;9.38;;
25207;SDS011;13153;52.316;21.166;2023-07-13T00:36:17;12.95;;;8.65;;
25207;SDS011;13153;52.316;21.166;2023-07-13T00:38:45;14.32;;;9.13;;
25207;SDS011;13153;52.316;21.166;2023-07-13T00:41:12;13.15;;;9.10;;
25207;SDS011;13153;52.316;21.166;2023-07-13T00:43:38;14.15;;;9.10;;
25207;SDS011;13153;52.316;21.166;2023-07-13T00:46:10;10.85;;;8.82;;
25207;SDS011;13153;52.316;21.166;2023-07-13T00:48:39;9.80;;;8.23;;
25207;SDS011;13153;52.316;21.166;2023-07-13T00:51:08;10.43;;;8.63;;
25207;SDS011;13153;52.316;21.166;2023-07-13T00:53:35;13.20;;;9.40;;
25207;SDS011;13153;52.316;21.166;2023-07-13T00:56:01;11.70;;;8.90;;
25207;SDS011;13153;52.316;21.166;2023-07-13T00:58:28;12.57;;;9.55;;
25207;SDS011;13153;52.316;21.166;2023-07-13T01:00:54;11.35;;;9.18;;
25207;SDS011;13153;52.316;21.166;2023-07-13T01:03:20;11.07;;;9.05;;
25207;SDS011;13153;52.316;21.166;2023-07-13T01:05:49;11.70;;;8.80;;
25207;SDS011;13153;52.316;21.166;2023-07-13T01:08:18;13.55;;;9.75;;
25207;SDS011;13153;52.316;21.166;2023-07-13T01:10:53;11.98;;;9.23;;
25207;SDS011;13153;52.316;21.166;2023-07-13T01:13:21;12.38;;;8.85;;
25207;SDS011;13153;52.316;21.166;2023-07-13T01:15:49;12.13;;;8.85;;
25207;SDS011;13153;52.316;21.166;2023-07-13T01:23:27;12.65;;;8.98;;
25207;SDS011;13153;52.316;21.166;2023-07-13T01:25:55;12.45;;;9.02;;
25207;SDS011;13153;52.316;21.166;2023-07-13T01:28:22;11.70;;;8.85;;
25207;SDS011;13153;52.316;21.166;2023-07-13T01:30:52;10.15;;;8.52;;
25207;SDS011;13153;52.316;21.166;2023-07-13T01:33:20;10.65;;;8.30;;
25207;SDS011;13153;52.316;21.166;2023-07-13T01:35:46;14.00;;;8.85;;
25207;SDS011;13153;52.316;21.166;2023-07-13T01:38:13;12.35;;;10.38;;
25207;SDS011;13153;52.316;21.166;2023-07-13T01:40:42;14.50;;;10.32;;
25207;SDS011;13153;52.316;21.166;2023-07-13T01:43:09;30.67;;;21.70;;
25207;SDS011;13153;52.316;21.166;2023-07-13T01:45:35;16.77;;;12.15;;
25207;SDS011;13153;52.316;21.166;2023-07-13T01:48:01;12.07;;;9.35;;
25207;SDS011;13153;52.316;21.166;2023-07-13T01:50:27;10.93;;;9.13;;
25207;SDS011;13153;52.316;21.166;2023-07-13T01:52:53;9.55;;;7.93;;
25207;SDS011;13153;52.316;21.166;2023-07-13T01:55:20;11.80;;;8.63;;
25207;SDS011;13153;52.316;21.166;2023-07-13T01:57:47;10.20;;;8.52;;
25207;SDS011;13153;52.316;21.166;2023-07-13T02:00:14;12.95;;;8.90;;
25207;SDS011;13153;52.316;21.166;2023-07-13T02:02:40;10.32;;;7.88;;
25207;SDS011;13153;52.316;21.166;2023-07-13T02:05:06;12.07;;;8.75;;
25207;SDS011;13153;52.316;21.166;2023-07-13T02:07:33;11.95;;;8.68;;
25207;SDS011;13153;52.316;21.166;2023-07-13T02:09:58;14.38;;;9.10;;
25207;SDS011;13153;52.316;21.166;2023-07-13T02:12:24;10.70;;;8.32;;
25207;SDS011;13153;52.316;21.166;2023-07-13T02:14:50;10.45;;;8.75;;
25207;SDS011;13153;52.316;21.166;2023-07-13T02:17:15;12.00;;;8.75;;
25207;SDS011;13153;52.316;21.166;2023-07-13T02:19:41;13.32;;;8.88;;
25207;SDS011;13153;52.316;21.166;2023-07-13T02:22:07;9.70;;;8.10;;
25207;SDS011;13153;52.316;21.166;2023-07-13T02:24:33;11.45;;;9.30;;
25207;SDS011;13153;52.316;21.166;2023-07-13T02:26:58;14.98;;;8.43;;
25207;SDS011;13153;52.316;21.166;2023-07-13T02:29:24;10.93;;;8.57;;
25207;SDS011;13153;52.316;21.166;2023-07-13T02:31:50;10.93;;;8.45;;
25207;SDS011;13153;52.316;21.166;2023-07-13T02:34:16;17.30;;;9.13;;
25207;SDS011;13153;52.316;21.166;2023-07-13T02:36:42;13.52;;;8.75;;
25207;SDS011;13153;52.316;21.166;2023-07-13T02:39:07;12.70;;;8.85;;
25207;SDS011;13153;52.316;21.166;2023-07-13T02:41:36;11.73;;;8.68;;
25207;SDS011;13153;52.316;21.166;2023-07-13T02:44:02;11.85;;;8.90;;
25207;SDS011;13153;52.316;21.166;2023-07-13T02:46:29;14.20;;;9.00;;
25207;SDS011;13153;52.316;21.166;2023-07-13T02:49:00;11.57;;;9.00;;
25207;SDS011;13153;52.316;21.166;2023-07-13T02:51:26;11.73;;;9.05;;
25207;SDS011;13153;52.316;21.166;2023-07-13T02:53:52;11.93;;;9.55;;
25207;SDS011;13153;52.316;21.166;2023-07-13T02:56:25;13.48;;;8.73;;
25207;SDS011;13153;52.316;21.166;2023-07-13T02:58:52;12.20;;;8.93;;
25207;SDS011;13153;52.316;21.166;2023-07-13T03:01:19;12.88;;;8.95;;
25207;SDS011;13153;52.316;21.166;2023-07-13T03:03:46;11.43;;;8.57;;
25207;SDS011;13153;52.316;21.166;2023-07-13T03:06:14;12.18;;;8.98;;
25207;SDS011;13153;52.316;21.166;2023-07-13T03:08:41;14.88;;;9.00;;
25207;SDS011;13153;52.316;21.166;2023-07-13T03:11:10;13.00;;;8.73;;
25207;SDS011;13153;52.316;21.166;2023-07-13T03:13:40;12.32;;;8.18;;
25207;SDS011;13153;52.316;21.166;2023-07-13T03:16:07;13.20;;;8.57;;
25207;SDS011;13153;52.316;21.166;2023-07-13T03:18:35;11.10;;;8.65;;
25207;SDS011;13153;52.316;21.166;2023-07-13T03:21:01;11.50;;;8.25;;
25207;SDS011;13153;52.316;21.166;2023-07-13T03:23:28;13.32;;;9.15;;
25207;SDS011;13153;52.316;21.166;2023-07-13T03:26:06;10.95;;;8.82;;
25207;SDS011;13153;52.316;21.166;2023-07-13T03:28:39;13.18;;;8.75;;
25207;SDS011;13153;52.316;21.166;2023-07-13T03:31:07;12.35;;;9.10;;
25207;SDS011;13153;52.316;21.166;2023-07-13T03:33:37;12.18;;;9.48;;
25207;SDS011;13153;52.316;21.166;2023-07-13T03:36:03;14.30;;;9.52;;
25207;SDS011;13153;52.316;21.166;2023-07-13T03:38:31;12.73;;;9.05;;
25207;SDS011;13153;52.316;21.166;2023-07-13T03:40:57;12.05;;;8.82;;
25207;SDS011;13153;52.316;21.166;2023-07-13T03:43:24;12.88;;;9.23;;
25207;SDS011;13153;52.316;21.166;2023-07-13T03:45:50;11.45;;;9.82;;
25207;SDS011;13153;52.316;21.166;2023-07-13T03:48:15;12.75;;;10.25;;
25207;SDS011;13153;52.316;21.166;2023-07-13T03:50:41;17.80;;;10.73;;
25207;SDS011;13153;52.316;21.166;2023-07-13T03:53:07;12.55;;;9.35;;
25207;SDS011;13153;52.316;21.166;2023-07-13T03:55:34;13.70;;;9.00;;
25207;SDS011;13153;52.316;21.166;2023-07-13T03:58:06;12.20;;;8.82;;
25207;SDS011;13153;52.316;21.166;2023-07-13T04:00:57;11.65;;;8.70;;
25207;SDS011;13153;52.316;21.166;2023-07-13T04:03:24;10.93;;;8.50;;
25207;SDS011;13153;52.316;21.166;2023-07-13T04:05:50;14.02;;;10.48;;
25207;SDS011;13153;52.316;21.166;2023-07-13T04:08:16;22.60;;;14.98;;
25207;SDS011;13153;52.316;21.166;2023-07-13T04:10:42;25.15;;;15.93;;
25207;SDS011;13153;52.316;21.166;2023-07-13T04:13:08;15.20;;;11.05;;
25207;SDS011;13153;52.316;21.166;2023-07-13T04:15:34;15.00;;;9.50;;
25207;SDS011;13153;52.316;21.166;2023-07-13T04:18:00;15.25;;;8.93;;
25207;SDS011;13153;52.316;21.166;2023-07-13T04:20:26;12.68;;;8.45;;
25207;SDS011;13153;52.316;21.166;2023-07-13T04:22:52;16.35;;;8.75;;
25207;SDS011;13153;52.316;21.166;2023-07-13T04:25:18;14.18;;;8.32;;
25207;SDS011;13153;52.316;21.166;2023-07-13T04:27:46;16.40;;;8.98;;
25207;SDS011;13153;52.316;21.166;2023-07-13T04:30:12;13.55;;;7.90;;
25207;SDS011;13153;52.316;21.166;2023-07-13T04:32:38;11.27;;;8.50;;
25207;SDS011;13153;52.316;21.166;2023-07-13T04:35:04;13.20;;;8.00;;
25207;SDS011;13153;52.316;21.166;2023-07-13T04:37:30;12.00;;;7.20;;
25207;SDS011;13153;52.316;21.166;2023-07-13T04:39:56;11.40;;;7.00;;
25207;SDS011;13153;52.316;21.166;2023-07-13T04:42:22;15.70;;;8.35;;
25207;SDS011;13153;52.316;21.166;2023-07-13T04:44:51;14.25;;;8.10;;
25207;SDS011;13153;52.316;21.166;2023-07-13T04:47:17;13.18;;;7.68;;
25207;SDS011;13153;52.316;21.166;2023-07-13T04:49:44;17.45;;;8.60;;
25207;SDS011;13153;52.316;21.166;2023-07-13T04:52:10;15.18;;;8.65;;
25207;SDS011;13153;52.316;21.166;2023-07-13T04:54:37;12.32;;;7.75;;
25207;SDS011;13153;52.316;21.166;2023-07-13T04:57:04;18.23;;;9.43;;
25207;SDS011;13153;52.316;21.166;2023-07-13T04:59:33;16.35;;;9.23;;
25207;SDS011;13153;52.316;21.166;2023-07-13T05:01:59;17.92;;;9.60;;
25207;SDS011;13153;52.316;21.166;2023-07-13T05:04:26;14.57;;;10.18;;
25207;SDS011;13153;52.316;21.166;2023-07-13T05:06:52;14.55;;;9.82;;
25207;SDS011;13153;52.316;21.166;2023-07-13T05:09:18;12.95;;;10.02;;
25207;SDS011;13153;52.316;21.166;2023-07-13T05:11:43;15.55;;;10.25;;
25207;SDS011;13153;52.316;21.166;2023-07-13T05:14:09;19.23;;;11.52;;
25207;SDS011;13153;52.316;21.166;2023-07-13T05:16:35;21.45;;;11.40;;
25207;SDS011;13153;52.316;21.166;2023-07-13T05:19:01;14.32;;;9.73;;
25207;SDS011;13153;52.316;21.166;2023-07-13T05:21:27;19.10;;;10.15;;
25207;SDS011;13153;52.316;21.166;2023-07-13T05:23:53;15.15;;;10.15;;
25207;SDS011;13153;52.316;21.166;2023-07-13T05:26:19;20.13;;;10.77;;
25207;SDS011;13153;52.316;21.166;2023-07-13T05:28:45;21.25;;;11.77;;
25207;SDS011;13153;52.316;21.166;2023-07-13T05:31:12;17.40;;;10.02;;
25207;SDS011;13153;52.316;21.166;2023-07-13T05:33:38;18.40;;;10.75;;
25207;SDS011;13153;52.316;21.166;2023-07-13T05:36:04;16.25;;;11.10;;
25207;SDS011;13153;52.316;21.166;2023-07-13T05:38:32;14.30;;;9.90;;
25207;SDS011;13153;52.316;21.166;2023-07-13T05:40:58;15.88;;;10.68;;
25207;SDS011;13153;52.316;21.166;2023-07-13T05:43:24;17.45;;;10.85;;
25207;SDS011;13153;52.316;21.166;2023-07-13T05:45:52;20.35;;;11.40;;
25207;SDS011;13153;52.316;21.166;2023-07-13T05:48:19;17.80;;;11.48;;
25207;SDS011;13153;52.316;21.166;2023-07-13T05:50:44;19.75;;;11.45;;
25207;SDS011;13153;52.316;21.166;2023-07-13T05:53:11;14.85;;;11.20;;
25207;SDS011;13153;52.316;21.166;2023-07-13T05:55:44;16.25;;;10.85;;
25207;SDS011;13153;52.316;21.166;2023-07-13T05:58:16;20.88;;;11.77;;
25207;SDS011;13153;52.316;21.166;2023-07-13T06:00:42;19.13;;;11.95;;
25207;SDS011;13153;52.316;21.166;2023-07-13T06:03:08;15.02;;;11.10;;
25207;SDS011;13153;52.316;21.166;2023-07-13T06:05:35;18.90;;;10.65;;
25207;SDS011;13153;52.316;21.166;2023-07-13T06:08:03;17.98;;;11.50;;
25207;SDS011;13153;52.316;21.166;2023-07-13T06:10:32;14.30;;;11.07;;
25207;SDS011;13153;52.316;21.166;2023-07-13T06:12:58;16.25;;;10.77;;
25207;SDS011;13153;52.316;21.166;2023-07-13T06:15:24;15.48;;;10.80;;
25207;SDS011;13153;52.316;21.166;2023-07-13T06:17:50;14.15;;;10.15;;
25207;SDS011;13153;52.316;21.166;2023-07-13T06:20:16;14.07;;;10.45;;
25207;SDS011;13153;52.316;21.166;2023-07-13T06:22:42;14.45;;;10.50;;
25207;SDS011;13153;52.316;21.166;2023-07-13T06:25:08;17.45;;;10.05;;
25207;SDS011;13153;52.316;21.166;2023-07-13T06:27:34;13.75;;;9.93;;
25207;SDS011;13153;52.316;21.166;2023-07-13T06:30:00;15.95;;;9.68;;
25207;SDS011;13153;52.316;21.166;2023-07-13T06:32:26;15.43;;;9.45;;
25207;SDS011;13153;52.316;21.166;2023-07-13T06:34:51;14.15;;;8.52;;
25207;SDS011;13153;52.316;21.166;2023-07-13T06:37:17;11.27;;;8.10;;
25207;SDS011;13153;52.316;21.166;2023-07-13T06:39:43;11.43;;;7.75;;
25207;SDS011;13153;52.316;21.166;2023-07-13T06:42:09;10.32;;;6.80;;
25207;SDS011;13153;52.316;21.166;2023-07-13T06:44:36;9.43;;;7.18;;
25207;SDS011;13153;52.316;21.166;2023-07-13T06:47:02;10.32;;;6.30;;
25207;SDS011;13153;52.316;21.166;2023-07-13T06:49:28;10.18;;;6.35;;
25207;SDS011;13153;52.316;21.166;2023-07-13T06:51:53;7.50;;;5.65;;
25207;SDS011;13153;52.316;21.166;2023-07-13T06:54:19;7.20;;;5.40;;
25207;SDS011;13153;52.316;21.166;2023-07-13T06:56:45;5.80;;;5.00;;
25207;SDS011;13153;52.316;21.166;2023-07-13T06:59:11;7.85;;;5.30;;
25207;SDS011;13153;52.316;21.166;2023-07-13T07:01:36;8.85;;;5.15;;
25207;SDS011;13153;52.316;21.166;2023-07-13T07:04:03;11.15;;;4.97;;
25207;SDS011;13153;52.316;21.166;2023-07-13T07:06:29;6.97;;;5.07;;
25207;SDS011;13153;52.316;21.166;2023-07-13T07:08:55;7.47;;;4.70;;
25207;SDS011;13153;52.316;21.166;2023-07-13T07:11:22;7.05;;;5.05;;
25207;SDS011;13153;52.316;21.166;2023-07-13T07:13:51;5.32;;;4.43;;
25207;SDS011;13153;52.316;21.166;2023-07-13T07:16:18;5.28;;;4.53;;
25207;SDS011;13153;52.316;21.166;2023-07-13T07:18:46;6.57;;;4.40;;
25207;SDS011;13153;52.316;21.166;2023-07-13T07:21:12;7.75;;;4.10;;
25207;SDS011;13153;52.316;21.166;2023-07-13T07:23:39;6.13;;;4.30;;
25207;SDS011;13153;52.316;21.166;2023-07-13T07:26:05;7.80;;;4.40;;
25207;SDS011;13153;52.316;21.166;2023-07-13T07:28:33;6.22;;;4.38;;
25207;SDS011;13153;52.316;21.166;2023-07-13T07:30:59;3.83;;;3.40;;
25207;SDS011;13153;52.316;21.166;2023-07-13T07:33:25;5.55;;;3.72;;
25207;SDS011;13153;52.316;21.166;2023-07-13T07:35:51;8.02;;;3.60;;
25207;SDS011;13153;52.316;21.166;2023-07-13T07:38:17;5.10;;;3.75;;
25207;SDS011;13153;52.316;21.166;2023-07-13T07:40:44;5.85;;;3.75;;
25207;SDS011;13153;52.316;21.166;2023-07-13T07:43:10;5.57;;;3.72;;
25207;SDS011;13153;52.316;21.166;2023-07-13T07:45:38;4.85;;;3.50;;
25207;SDS011;13153;52.316;21.166;2023-07-13T07:48:05;4.32;;;3.92;;
25207;SDS011;13153;52.316;21.166;2023-07-13T07:50:34;6.57;;;4.25;;
25207;SDS011;13153;52.316;21.166;2023-07-13T07:53:00;7.15;;;4.15;;
25207;SDS011;13153;52.316;21.166;2023-07-13T07:55:27;7.93;;;4.20;;
25207;SDS011;13153;52.316;21.166;2023-07-13T07:57:53;5.88;;;4.03;;
25207;SDS011;13153;52.316;21.166;2023-07-13T08:00:19;5.15;;;3.67;;
25207;SDS011;13153;52.316;21.166;2023-07-13T08:02:46;7.40;;;3.60;;
25207;SDS011;13153;52.316;21.166;2023-07-13T08:05:13;7.50;;;3.95;;
25207;SDS011;13153;52.316;21.166;2023-07-13T08:07:39;6.15;;;4.15;;
25207;SDS011;13153;52.316;21.166;2023-07-13T08:10:06;6.10;;;3.90;;
25207;SDS011;13153;52.316;21.166;2023-07-13T08:12:36;6.18;;;3.97;;
25207;SDS011;13153;52.316;21.166;2023-07-13T08:15:03;5.75;;;4.00;;
25207;SDS011;13153;52.316;21.166;2023-07-13T08:17:31;6.13;;;3.95;;
25207;SDS011;13153;52.316;21.166;2023-07-13T08:19:57;6.47;;;4.03;;
25207;SDS011;13153;52.316;21.166;2023-07-13T08:22:23;5.68;;;4.10;;
25207;SDS011;13153;52.316;21.166;2023-07-13T08:24:49;5.80;;;4.57;;
25207;SDS011;13153;52.316;21.166;2023-07-13T08:27:21;6.40;;;4.30;;
25207;SDS011;13153;52.316;21.166;2023-07-13T08:29:48;5.80;;;4.43;;
25207;SDS011;13153;52.316;21.166;2023-07-13T08:32:15;5.28;;;4.38;;
25207;SDS011;13153;52.316;21.166;2023-07-13T08:34:43;6.18;;;4.57;;
25207;SDS011;13153;52.316;21.166;2023-07-13T08:37:09;5.57;;;4.72;;
25207;SDS011;13153;52.316;21.166;2023-07-13T08:39:35;8.00;;;4.43;;
25207;SDS011;13153;52.316;21.166;2023-07-13T08:42:02;5.88;;;4.22;;
25207;SDS011;13153;52.316;21.166;2023-07-13T08:44:45;4.30;;;3.90;;
25207;SDS011;13153;52.316;21.166;2023-07-13T08:47:34;6.97;;;4.35;;
25207;SDS011;13153;52.316;21.166;2023-07-13T08:50:04;4.30;;;3.90;;
25207;SDS011;13153;52.316;21.166;2023-07-13T08:52:35;7.07;;;4.00;;
25207;SDS011;13153;52.316;21.166;2023-07-13T08:55:40;5.63;;;4.32;;
25207;SDS011;13153;52.316;21.166;2023-07-13T08:58:11;5.03;;;4.53;;
25207;SDS011;13153;52.316;21.166;2023-07-13T09:03:24;6.18;;;4.38;;
25207;SDS011;13153;52.316;21.166;2023-07-13T09:06:01;5.30;;;4.47;;
25207;SDS011;13153;52.316;21.166;2023-07-13T09:17:03;4.88;;;4.38;;
25207;SDS011;13153;52.316;21.166;2023-07-13T09:19:39;8.52;;;4.82;;
25207;SDS011;13153;52.316;21.166;2023-07-13T09:22:09;8.75;;;4.68;;
25207;SDS011;13153;52.316;21.166;2023-07-13T09:27:23;7.05;;;3.20;;
25207;SDS011;13153;52.316;21.166;2023-07-13T09:30:42;10.40;;;3.05;;
25207;SDS011;13153;52.316;21.166;2023-07-13T09:33:03;7.97;;;3.10;;
25207;SDS011;13153;52.316;21.166;2023-07-13T09:35:29;7.18;;;2.80;;
25207;SDS011;13153;52.316;21.166;2023-07-13T09:38:02;10.95;;;3.08;;
25207;SDS011;13153;52.316;21.166;2023-07-13T09:43:38;4.72;;;2.60;;
25207;SDS011;13153;52.316;21.166;2023-07-13T09:46:04;9.43;;;3.00;;
25207;SDS011;13153;52.316;21.166;2023-07-13T09:48:46;4.53;;;3.00;;
25207;SDS011;13153;52.316;21.166;2023-07-13T09:51:14;6.57;;;2.80;;
25207;SDS011;13153;52.316;21.166;2023-07-13T09:53:41;5.30;;;3.03;;
25207;SDS011;13153;52.316;21.166;2023-07-13T09:56:22;3.90;;;2.70;;
25207;SDS011;13153;52.316;21.166;2023-07-13T09:58:55;4.57;;;2.80;;
25207;SDS011;13153;52.316;21.166;2023-07-13T10:01:33;4.13;;;2.88;;
25207;SDS011;13153;52.316;21.166;2023-07-13T10:04:02;6.13;;;3.05;;
25207;SDS011;13153;52.316;21.166;2023-07-13T10:06:38;3.95;;;3.05;;
25207;SDS011;13153;52.316;21.166;2023-07-13T10:09:08;3.10;;;2.78;;
25207;SDS011;13153;52.316;21.166;2023-07-13T10:11:35;3.80;;;2.83;;
25207;SDS011;13153;52.316;21.166;2023-07-13T10:14:13;6.15;;;2.80;;
25207;SDS011;13153;52.316;21.166;2023-07-13T10:16:48;5.40;;;2.80;;
25207;SDS011;13153;52.316;21.166;2023-07-13T10:19:29;4.13;;;2.60;;
25207;SDS011;13153;52.316;21.166;2023-07-13T10:22:00;5.13;;;2.72;;
25207;SDS011;13153;52.316;21.166;2023-07-13T10:24:52;4.63;;;2.70;;
25207;SDS011;13153;52.316;21.166;2023-07-13T10:27:29;5.53;;;2.63;;
25207;SDS011;13153;52.316;21.166;2023-07-13T10:30:12;5.50;;;2.58;;
25207;SDS011;13153;52.316;21.166;2023-07-13T10:32:54;3.65;;;2.63;;
25207;SDS011;13153;52.316;21.166;2023-07-13T10:35:24;3.17;;;2.67;;
25207;SDS011;13153;52.316;21.166;2023-07-13T10:37:55;3.53;;;2.72;;
25207;SDS011;13153;52.316;21.166;2023-07-13T10:40:45;3.40;;;2.70;;
25207;SDS011;13153;52.316;21.166;2023-07-13T10:43:37;6.45;;;2.70;;
25207;SDS011;13153;52.316;21.166;2023-07-13T10:46:14;8.02;;;2.63;;
25207;SDS011;13153;52.316;21.166;2023-07-13T10:48:46;4.43;;;2.53;;
25207;SDS011;13153;52.316;21.166;2023-07-13T10:51:22;5.50;;;2.60;;
25207;SDS011;13153;52.316;21.166;2023-07-13T10:54:10;5.78;;;2.60;;
25207;SDS011;13153;52.316;21.166;2023-07-13T10:56:41;4.95;;;2.20;;
25207;SDS011;13153;52.316;21.166;2023-07-13T11:01:40;9.43;;;2.63;;
25207;SDS011;13153;52.316;21.166;2023-07-13T11:04:52;4.57;;;2.60;;
25207;SDS011;13153;52.316;21.166;2023-07-13T11:09:52;3.58;;;2.42;;
25207;SDS011;13153;52.316;21.166;2023-07-13T11:19:53;4.28;;;2.88;;
25207;SDS011;13153;52.316;21.166;2023-07-13T11:22:52;4.68;;;2.80;;
25207;SDS011;13153;52.316;21.166;2023-07-13T11:25:34;6.80;;;3.30;;
25207;SDS011;13153;52.316;21.166;2023-07-13T11:28:07;9.57;;;3.65;;
25207;SDS011;13153;52.316;21.166;2023-07-13T11:39:24;5.45;;;3.58;;
25207;SDS011;13153;52.316;21.166;2023-07-13T11:41:56;6.55;;;3.30;;
25207;SDS011;13153;52.316;21.166;2023-07-13T11:44:26;5.05;;;3.58;;
25207;SDS011;13153;52.316;21.166;2023-07-13T11:46:56;6.80;;;3.58;;
25207;SDS011;13153;52.316;21.166;2023-07-13T11:49:26;4.93;;;3.40;;
25207;SDS011;13153;52.316;21.166;2023-07-13T11:51:57;4.25;;;3.30;;
25207;SDS011;13153;52.316;21.166;2023-07-13T11:54:28;6.55;;;3.50;;
25207;SDS011;13153;52.316;21.166;2023-07-13T11:57:01;5.10;;;3.47;;
25207;SDS011;13153;52.316;21.166;2023-07-13T11:59:51;5.85;;;3.58;;
25207;SDS011;13153;52.316;21.166;2023-07-13T12:02:33;4.93;;;3.40;;
25207;SDS011;13153;52.316;21.166;2023-07-13T12:05:09;6.03;;;4.13;;
25207;SDS011;13153;52.316;21.166;2023-07-13T12:07:39;7.05;;;4.13;;
25207;SDS011;13153;52.316;21.166;2023-07-13T12:12:47;9.95;;;3.75;;
25207;SDS011;13153;52.316;21.166;2023-07-13T12:15:24;4.43;;;3.55;;
25207;SDS011;13153;52.316;21.166;2023-07-13T12:18:14;10.30;;;4.35;;
25207;SDS011;13153;52.316;21.166;2023-07-13T12:20:40;4.78;;;3.85;;
25207;SDS011;13153;52.316;21.166;2023-07-13T12:23:10;4.55;;;4.00;;
25207;SDS011;13153;52.316;21.166;2023-07-13T12:25:57;6.07;;;4.18;;
25207;SDS011;13153;52.316;21.166;2023-07-13T12:28:36;5.47;;;4.32;;
25207;SDS011;13153;52.316;21.166;2023-07-13T12:31:22;6.72;;;4.10;;
25207;SDS011;13153;52.316;21.166;2023-07-13T12:34:10;5.15;;;3.97;;
25207;SDS011;13153;52.316;21.166;2023-07-13T12:36:46;5.28;;;4.00;;
25207;SDS011;13153;52.316;21.166;2023-07-13T12:39:38;7.00;;;4.40;;
25207;SDS011;13153;52.316;21.166;2023-07-13T12:42:26;8.82;;;4.40;;
25207;SDS011;13153;52.316;21.166;2023-07-13T12:44:58;7.65;;;4.40;;
25207;SDS011;13153;52.316;21.166;2023-07-13T12:47:42;6.30;;;4.35;;
25207;SDS011;13153;52.316;21.166;2023-07-13T12:50:19;5.70;;;4.28;;
25207;SDS011;13153;52.316;21.166;2023-07-13T12:52:54;4.78;;;4.03;;
25207;SDS011;13153;52.316;21.166;2023-07-13T12:55:29;9.52;;;4.55;;
25207;SDS011;13153;52.316;21.166;2023-07-13T12:57:58;5.63;;;4.60;;
25207;SDS011;13153;52.316;21.166;2023-07-13T13:00:36;5.40;;;4.10;;
25207;SDS011;13153;52.316;21.166;2023-07-13T13:03:21;6.28;;;4.72;;
25207;SDS011;13153;52.316;21.166;2023-07-13T13:08:33;5.35;;;4.13;;
25207;SDS011;13153;52.316;21.166;2023-07-13T13:11:01;8.55;;;4.63;;
25207;SDS011;13153;52.316;21.166;2023-07-13T13:13:27;6.38;;;4.53;;
25207;SDS011;13153;52.316;21.166;2023-07-13T13:15:53;6.75;;;5.07;;
25207;SDS011;13153;52.316;21.166;2023-07-13T13:18:21;6.25;;;4.68;;
25207;SDS011;13153;52.316;21.166;2023-07-13T13:20:51;8.95;;;5.07;;
25207;SDS011;13153;52.316;21.166;2023-07-13T13:23:18;9.48;;;5.22;;
25207;SDS011;13153;52.316;21.166;2023-07-13T13:25:46;7.35;;;5.03;;
25207;SDS011;13153;52.316;21.166;2023-07-13T13:28:16;9.65;;;6.65;;
25207;SDS011;13153;52.316;21.166;2023-07-13T13:30:46;10.77;;;7.22;;
25207;SDS011;13153;52.316;21.166;2023-07-13T13:33:16;7.32;;;5.50;;
25207;SDS011;13153;52.316;21.166;2023-07-13T13:35:44;8.82;;;5.88;;
25207;SDS011;13153;52.316;21.166;2023-07-13T13:38:12;8.43;;;6.05;;
25207;SDS011;13153;52.316;21.166;2023-07-13T13:40:44;10.40;;;5.47;;
25207;SDS011;13153;52.316;21.166;2023-07-13T13:43:24;10.23;;;5.80;;
25207;SDS011;13153;52.316;21.166;2023-07-13T13:45:52;12.15;;;6.10;;
25207;SDS011;13153;52.316;21.166;2023-07-13T13:48:29;12.93;;;6.80;;
25207;SDS011;13153;52.316;21.166;2023-07-13T13:51:03;12.45;;;6.60;;
25207;SDS011;13153;52.316;21.166;2023-07-13T13:53:39;10.38;;;6.93;;
25207;SDS011;13153;52.316;21.166;2023-07-13T13:56:05;10.27;;;6.65;;
25207;SDS011;13153;52.316;21.166;2023-07-13T13:58:31;11.50;;;7.10;;
25207;SDS011;13153;52.316;21.166;2023-07-13T14:00:56;10.77;;;7.00;;
25207;SDS011;13153;52.316;21.166;2023-07-13T14:03:23;12.68;;;7.03;;
25207;SDS011;13153;52.316;21.166;2023-07-13T14:05:49;8.25;;;6.22;;
25207;SDS011;13153;52.316;21.166;2023-07-13T14:08:16;9.10;;;6.20;;
25207;SDS011;13153;52.316;21.166;2023-07-13T14:10:45;8.98;;;6.65;;
25207;SDS011;13153;52.316;21.166;2023-07-13T14:13:18;8.75;;;6.28;;
25207;SDS011;13153;52.316;21.166;2023-07-13T14:15:53;11.45;;;6.22;;
25207;SDS011;13153;52.316;21.166;2023-07-13T14:18:19;8.90;;;6.20;;
25207;SDS011;13153;52.316;21.166;2023-07-13T14:20:46;9.18;;;6.55;;
25207;SDS011;13153;52.316;21.166;2023-07-13T14:23:16;8.60;;;6.10;;
25207;SDS011;13153;52.316;21.166;2023-07-13T14:25:43;10.73;;;6.35;;
25207;SDS011;13153;52.316;21.166;2023-07-13T14:28:24;9.77;;;6.32;;
25207;SDS011;13153;52.316;21.166;2023-07-13T14:30:53;10.90;;;7.20;;
25207;SDS011;13153;52.316;21.166;2023-07-13T14:33:20;9.25;;;6.10;;
25207;SDS011;13153;52.316;21.166;2023-07-13T14:35:46;9.18;;;6.03;;
25207;SDS011;13153;52.316;21.166;2023-07-13T14:38:15;9.65;;;6.45;;
25207;SDS011;13153;52.316;21.166;2023-07-13T14:40:45;7.60;;;5.95;;
25207;SDS011;13153;52.316;21.166;2023-07-13T14:43:12;8.73;;;6.25;;
25207;SDS011;13153;52.316;21.166;2023-07-13T14:45:41;8.48;;;6.20;;
25207;SDS011;13153;52.316;21.166;2023-07-13T14:48:15;12.82;;;6.60;;
25207;SDS011;13153;52.316;21.166;2023-07-13T14:50:50;10.90;;;6.65;;
25207;SDS011;13153;52.316;21.166;2023-07-13T14:55:49;11.90;;;7.28;;
25207;SDS011;13153;52.316;21.166;2023-07-13T14:58:15;13.55;;;7.55;;
25207;SDS011;13153;52.316;21.166;2023-07-13T15:00:41;13.05;;;7.35;;
25207;SDS011;13153;52.316;21.166;2023-07-13T15:03:13;11.25;;;7.28;;
25207;SDS011;13153;52.316;21.166;2023-07-13T15:05:46;11.20;;;7.72;;
25207;SDS011;13153;52.316;21.166;2023-07-13T15:08:13;9.50;;;7.07;;
25207;SDS011;13153;52.316;21.166;2023-07-13T15:10:40;11.98;;;7.28;;
25207;SDS011;13153;52.316;21.166;2023-07-13T15:13:19;14.50;;;7.30;;
25207;SDS011;13153;52.316;21.166;2023-07-13T15:15:49;10.32;;;6.22;;
25207;SDS011;13153;52.316;21.166;2023-07-13T15:18:18;8.43;;;6.40;;
25207;SDS011;13153;52.316;21.166;2023-07-13T15:20:47;10.05;;;6.97;;
25207;SDS011;13153;52.316;21.166;2023-07-13T15:23:16;9.93;;;7.13;;
25207;SDS011;13153;52.316;21.166;2023-07-13T15:25:43;10.73;;;7.10;;
25207;SDS011;13153;52.316;21.166;2023-07-13T15:28:10;10.43;;;6.80;;
25207;SDS011;13153;52.316;21.166;2023-07-13T15:30:44;11.98;;;6.97;;
25207;SDS011;13153;52.316;21.166;2023-07-13T15:35:48;9.50;;;6.28;;